Time;durP1;ratioP1;P1;durP2;ratioP2;P2;SDS_P1;SDS_P2;PMS_P1;PMS_P2;Temp;Humidity;BMP_temperature;BMP_pressure;BME280_temperature;BME280_humidity;BME280_pressure;Samples;Min_cycle;Max_cycle;Signal;HPM_P1;HPM_P2
2020/12/22 00:00:42;;;;;;;2.93;1.90;;;8.10;99.90;;;;;;4191532;28;20463;-63
2020/12/22 00:02:46;;;;;;;2.53;1.87;;;8.10;99.90;;;;;;4189688;28;20545;-58
2020/12/22 00:04:47;;;;;;;3.50;2.20;;;8.10;99.90;;;;;;4191036;28;20467;-59
2020/12/22 00:06:48;;;;;;;3.63;2.13;;;8.10;99.90;;;;;;4191649;28;20943;-59
2020/12/22 00:08:50;;;;;;;4.27;2.30;;;8.10;99.90;;;;;;4191140;28;20471;-61
2020/12/22 00:10:51;;;;;;;3.00;2.20;;;8.10;99.90;;;;;;4190278;28;20498;-59
2020/12/22 00:12:53;;;;;;;7.37;2.30;;;8.10;99.90;;;;;;4192317;28;21119;-59
2020/12/22 00:14:54;;;;;;;4.77;2.37;;;8.10;99.90;;;;;;4190715;28;20479;-59
2020/12/22 00:16:56;;;;;;;3.47;2.17;;;8.10;99.90;;;;;;4191125;28;20496;-60
2020/12/22 00:18:58;;;;;;;5.27;2.60;;;8.20;99.90;;;;;;4190610;28;20967;-60
2020/12/22 00:20:59;;;;;;;6.70;2.60;;;8.20;99.90;;;;;;4189831;28;20470;-58
2020/12/22 00:23:00;;;;;;;2.97;2.17;;;8.20;99.90;;;;;;4193268;28;20467;-59
2020/12/22 00:25:02;;;;;;;3.53;2.60;;;8.20;99.90;;;;;;4191757;28;20487;-60
2020/12/22 00:27:03;;;;;;;4.27;2.43;;;8.20;99.90;;;;;;4188939;28;20470;-63
2020/12/22 00:29:04;;;;;;;5.00;2.77;;;8.20;99.90;;;;;;4191378;28;20466;-59
2020/12/22 00:31:06;;;;;;;5.00;2.60;;;8.20;99.90;;;;;;4189694;28;20475;-64
2020/12/22 00:33:07;;;;;;;3.57;2.40;;;8.20;99.90;;;;;;4192441;28;20514;-60
2020/12/22 00:35:09;;;;;;;4.83;2.70;;;8.30;99.90;;;;;;4191332;28;20524;-59
2020/12/22 00:37:11;;;;;;;4.53;2.77;;;8.30;99.90;;;;;;4190343;28;20467;-59
2020/12/22 00:39:13;;;;;;;3.67;2.80;;;8.30;99.90;;;;;;4191472;28;20549;-59
2020/12/22 00:41:15;;;;;;;3.97;2.60;;;8.30;99.90;;;;;;4190407;28;22425;-59
2020/12/22 00:43:16;;;;;;;3.90;2.70;;;8.30;99.90;;;;;;4189688;28;20566;-59
2020/12/22 00:45:18;;;;;;;4.03;2.60;;;8.40;99.90;;;;;;4190797;28;20466;-59
2020/12/22 00:47:20;;;;;;;4.50;2.77;;;8.40;99.90;;;;;;4191314;28;20468;-59
2020/12/22 00:49:22;;;;;;;3.47;2.60;;;8.30;99.90;;;;;;4189121;28;20495;-59
2020/12/22 00:51:26;;;;;;;3.93;2.60;;;8.40;99.90;;;;;;4191663;28;22531;-59
2020/12/22 00:53:27;;;;;;;3.77;2.40;;;8.40;99.90;;;;;;4189428;28;20927;-60
2020/12/22 00:55:29;;;;;;;3.67;2.70;;;8.40;99.90;;;;;;4190121;28;20472;-59
2020/12/22 00:57:30;;;;;;;4.50;2.77;;;8.40;99.90;;;;;;4191052;28;21111;-59
2020/12/22 00:59:32;;;;;;;4.33;2.63;;;8.40;99.90;;;;;;4188338;28;20487;-59
2020/12/22 01:01:34;;;;;;;4.13;2.80;;;8.40;99.90;;;;;;4192286;28;20969;-60
2020/12/22 01:03:35;;;;;;;3.23;2.43;;;8.40;99.90;;;;;;4191372;28;20478;-59
2020/12/22 01:05:36;;;;;;;3.30;2.50;;;8.40;99.90;;;;;;4190867;28;20592;-59
2020/12/22 01:07:38;;;;;;;3.67;2.40;;;8.50;99.90;;;;;;4190006;28;20553;-59
2020/12/22 01:09:40;;;;;;;3.73;2.67;;;8.50;99.90;;;;;;4190507;28;21231;-59
2020/12/22 01:11:42;;;;;;;4.33;2.70;;;8.50;99.90;;;;;;4194394;28;20567;-59
2020/12/22 01:13:43;;;;;;;3.17;2.43;;;8.50;99.90;;;;;;4194033;28;20476;-59
2020/12/22 01:15:45;;;;;;;3.17;2.43;;;8.50;99.90;;;;;;4192990;28;20939;-59
2020/12/22 01:17:46;;;;;;;3.73;2.20;;;8.50;99.90;;;;;;4192902;28;20478;-59
2020/12/22 01:19:48;;;;;;;3.80;2.63;;;8.50;99.90;;;;;;4193303;28;20492;-60
2020/12/22 01:21:52;;;;;;;3.43;2.50;;;8.50;99.90;;;;;;4192293;28;22445;-59
2020/12/22 01:23:54;;;;;;;4.10;2.70;;;8.60;99.90;;;;;;4194353;28;20471;-59
2020/12/22 01:25:55;;;;;;;4.23;2.17;;;8.60;99.90;;;;;;4193960;28;20480;-59
2020/12/22 01:27:57;;;;;;;3.00;2.20;;;8.60;99.90;;;;;;4195098;28;20474;-59
2020/12/22 01:29:58;;;;;;;3.37;2.13;;;8.60;99.90;;;;;;4194134;28;20486;-60
2020/12/22 01:31:59;;;;;;;2.77;1.97;;;8.60;99.90;;;;;;4191867;28;20976;-59
2020/12/22 01:34:01;;;;;;;2.73;1.80;;;8.70;99.90;;;;;;4193303;28;20482;-59
2020/12/22 01:36:02;;;;;;;3.23;2.00;;;8.70;99.90;;;;;;4193040;28;20956;-60
2020/12/22 01:38:03;;;;;;;3.40;1.93;;;8.70;99.90;;;;;;4193800;28;20467;-59
2020/12/22 01:40:05;;;;;;;4.33;2.20;;;8.70;99.90;;;;;;4193436;28;20813;-59
2020/12/22 01:42:08;;;;;;;4.20;2.27;;;8.70;99.90;;;;;;4192819;28;20560;-59
2020/12/22 01:44:11;;;;;;;4.07;1.90;;;8.80;99.90;;;;;;4192563;28;20469;-59
2020/12/22 01:46:13;;;;;;;2.10;1.67;;;8.80;99.90;;;;;;4193881;28;20603;-59
2020/12/22 01:48:14;;;;;;;2.67;1.90;;;8.80;99.90;;;;;;4192419;28;20466;-59
2020/12/22 01:50:17;;;;;;;2.67;1.80;;;8.80;99.90;;;;;;4193021;28;20518;-59
2020/12/22 01:52:18;;;;;;;2.53;1.87;;;8.80;99.90;;;;;;4191364;28;20480;-58
2020/12/22 01:54:20;;;;;;;3.97;2.10;;;8.90;99.90;;;;;;4192534;28;20478;-60
2020/12/22 01:56:22;;;;;;;2.80;1.80;;;8.90;99.90;;;;;;4192479;28;20963;-58
2020/12/22 01:58:23;;;;;;;4.37;1.80;;;8.90;99.90;;;;;;4192362;28;20529;-58
2020/12/22 02:00:25;;;;;;;3.43;1.70;;;8.90;99.90;;;;;;4193562;28;20491;-58
2020/12/22 02:02:26;;;;;;;5.30;2.30;;;8.90;99.90;;;;;;4192676;28;21563;-58
2020/12/22 02:04:28;;;;;;;3.13;2.27;;;9.00;99.90;;;;;;4190687;28;20950;-58
2020/12/22 02:06:30;;;;;;;3.17;2.27;;;8.90;99.90;;;;;;4192231;28;20479;-58
2020/12/22 02:08:32;;;;;;;3.20;1.87;;;8.90;99.90;;;;;;4191785;28;21187;-58
2020/12/22 02:10:33;;;;;;;4.10;2.63;;;8.90;99.90;;;;;;4191754;28;20509;-58
2020/12/22 02:12:40;;;;;;;4.10;2.63;;;8.90;99.90;;;;;;4192526;28;20361;-58
2020/12/22 02:14:42;;;;;;;3.90;2.20;;;8.90;99.90;;;;;;4192320;28;20472;-58
2020/12/22 02:16:43;;;;;;;3.93;2.43;;;8.90;99.90;;;;;;4193064;28;20793;-59
2020/12/22 02:18:45;;;;;;;2.77;2.00;;;9.00;99.90;;;;;;4192401;28;20467;-58
2020/12/22 02:20:48;;;;;;;3.10;1.97;;;9.00;99.90;;;;;;4191259;28;20486;-58
2020/12/22 02:22:50;;;;;;;3.27;2.00;;;9.00;99.90;;;;;;4194153;28;20475;-62
2020/12/22 02:24:51;;;;;;;2.40;1.80;;;9.00;99.90;;;;;;4193459;28;20476;-58
2020/12/22 02:26:52;;;;;;;2.83;1.80;;;9.00;99.90;;;;;;4192516;28;20863;-58
2020/12/22 02:28:55;;;;;;;2.87;2.23;;;9.00;99.90;;;;;;4192510;28;20479;-59
2020/12/22 02:30:57;;;;;;;2.63;1.97;;;9.00;99.90;;;;;;4190984;28;20482;-58
2020/12/22 02:32:58;;;;;;;2.37;2.00;;;9.10;99.90;;;;;;4191865;28;20476;-58
2020/12/22 02:34:59;;;;;;;3.13;2.20;;;9.10;99.90;;;;;;4193496;28;20821;-62
2020/12/22 02:37:01;;;;;;;3.93;2.40;;;9.10;99.90;;;;;;4190730;28;20466;-58
2020/12/22 02:39:04;;;;;;;6.10;2.50;;;9.10;99.90;;;;;;4192524;28;20730;-58
2020/12/22 02:41:06;;;;;;;2.97;2.30;;;9.10;99.90;;;;;;4190998;28;20483;-57
2020/12/22 02:43:10;;;;;;;4.20;3.10;;;9.10;99.90;;;;;;4191345;28;20483;-60
2020/12/22 02:45:12;;;;;;;3.67;2.60;;;9.20;99.90;;;;;;4193213;28;20468;-58
2020/12/22 02:47:15;;;;;;;4.73;3.03;;;9.20;99.90;;;;;;4190999;28;20953;-59
2020/12/22 02:49:16;;;;;;;5.03;2.63;;;9.20;99.90;;;;;;4191800;28;20744;-59
2020/12/22 02:51:18;;;;;;;4.00;2.57;;;9.20;99.90;;;;;;4192707;28;20805;-58
2020/12/22 02:53:19;;;;;;;4.13;2.27;;;9.20;99.90;;;;;;4191673;28;20478;-58
2020/12/22 02:55:22;;;;;;;4.30;2.43;;;9.30;99.90;;;;;;4191577;28;20498;-58
2020/12/22 02:57:23;;;;;;;3.60;2.10;;;9.30;99.90;;;;;;4192156;28;20479;-59
2020/12/22 02:59:24;;;;;;;2.23;1.80;;;9.30;99.90;;;;;;4190488;28;20541;-60
2020/12/22 03:01:25;;;;;;;3.67;2.00;;;9.40;99.90;;;;;;4191576;28;20478;-59
2020/12/22 03:03:27;;;;;;;2.07;1.50;;;9.40;99.90;;;;;;4192190;28;20479;-58
2020/12/22 03:05:28;;;;;;;1.80;1.50;;;9.40;99.90;;;;;;4190830;28;21015;-59
2020/12/22 03:07:29;;;;;;;2.53;1.70;;;9.40;99.90;;;;;;4193271;28;20505;-58
2020/12/22 03:09:32;;;;;;;2.23;1.53;;;9.50;99.90;;;;;;4191701;28;20470;-58
2020/12/22 03:11:34;;;;;;;1.93;1.40;;;9.50;99.90;;;;;;4191373;28;20563;-58
2020/12/22 03:13:35;;;;;;;2.13;1.47;;;9.40;99.90;;;;;;4191105;28;20479;-58
2020/12/22 03:15:37;;;;;;;1.67;1.27;;;9.50;99.90;;;;;;4190697;28;20474;-58
2020/12/22 03:17:39;;;;;;;2.37;1.10;;;9.60;99.90;;;;;;4192414;28;20567;-59
2020/12/22 03:19:40;;;;;;;2.20;1.27;;;9.60;99.90;;;;;;4190262;28;20479;-64
2020/12/22 03:21:42;;;;;;;1.77;1.00;;;9.60;99.90;;;;;;4193068;28;20563;-58
2020/12/22 03:23:43;;;;;;;4.53;0.90;;;9.70;99.90;;;;;;4192195;28;20467;-59
2020/12/22 03:25:45;;;;;;;1.63;0.80;;;9.70;99.90;;;;;;4190988;28;20489;-58
2020/12/22 03:27:47;;;;;;;0.83;0.70;;;9.80;99.90;;;;;;4192692;28;20218;-58
2020/12/22 03:29:48;;;;;;;0.83;0.70;;;9.80;99.90;;;;;;4192380;28;20472;-58
2020/12/22 03:31:49;;;;;;;0.90;0.60;;;9.90;99.90;;;;;;4189968;28;20732;-58
2020/12/22 03:33:51;;;;;;;2.60;0.70;;;10.00;99.90;;;;;;4190824;28;20214;-59
2020/12/22 03:35:52;;;;;;;1.70;0.77;;;10.00;99.90;;;;;;4192643;28;20465;-58
2020/12/22 03:37:53;;;;;;;1.10;0.60;;;10.10;99.90;;;;;;4191365;28;20256;-58
2020/12/22 03:39:56;;;;;;;1.70;0.53;;;10.20;99.90;;;;;;4190066;28;20229;-58
2020/12/22 03:41:57;;;;;;;0.60;0.50;;;10.20;99.90;;;;;;4189540;28;20220;-59
2020/12/22 03:43:59;;;;;;;0.63;0.60;;;10.20;99.90;;;;;;4190123;28;20213;-58
2020/12/22 03:46:01;;;;;;;0.50;0.50;;;10.30;99.90;;;;;;4192061;28;20218;-58
2020/12/22 03:48:02;;;;;;;0.77;0.57;;;10.30;99.90;;;;;;4190651;28;20248;-58
2020/12/22 03:50:05;;;;;;;0.70;0.60;;;10.40;99.90;;;;;;4190206;28;20213;-58
2020/12/22 03:52:06;;;;;;;3.37;0.60;;;10.40;99.90;;;;;;4190953;28;20209;-58
2020/12/22 03:54:08;;;;;;;0.60;0.53;;;10.50;99.90;;;;;;4191410;28;20210;-58
2020/12/22 03:56:09;;;;;;;0.60;0.50;;;10.50;99.90;;;;;;4191453;28;20225;-58
2020/12/22 03:58:10;;;;;;;0.40;0.40;;;10.50;99.90;;;;;;4189753;28;20745;-58
2020/12/22 04:00:14;;;;;;;1.67;0.47;;;10.50;99.90;;;;;;4191060;28;20224;-58
2020/12/22 04:02:15;;;;;;;0.40;0.40;;;10.60;99.90;;;;;;4191505;28;22046;-59
2020/12/22 04:04:19;;;;;;;1.03;0.60;;;10.60;99.90;;;;;;4190329;28;20229;-58
2020/12/22 04:06:21;;;;;;;1.00;0.57;;;10.70;99.90;;;;;;4190467;28;20210;-58
2020/12/22 04:08:22;;;;;;;0.60;0.40;;;10.70;99.90;;;;;;4192249;28;21166;-64
2020/12/22 04:10:23;;;;;;;0.60;0.40;;;10.70;99.90;;;;;;4189794;28;20256;-58
2020/12/22 04:12:25;;;;;;;1.23;0.50;;;10.80;99.90;;;;;;4191630;28;20226;-59
2020/12/22 04:14:26;;;;;;;1.27;0.50;;;10.80;99.90;;;;;;4190271;28;20209;-59
2020/12/22 04:16:28;;;;;;;2.30;0.53;;;10.80;99.90;;;;;;4189809;28;20217;-59
2020/12/22 04:18:30;;;;;;;0.50;0.50;;;10.90;99.90;;;;;;4189337;28;20243;-59
2020/12/22 04:20:31;;;;;;;0.73;0.50;;;10.90;99.90;;;;;;4189672;28;20238;-61
2020/12/22 04:22:32;;;;;;;0.90;0.40;;;10.90;99.90;;;;;;4190872;28;20629;-58
2020/12/22 04:24:33;;;;;;;0.40;0.40;;;10.90;99.90;;;;;;4190699;28;20209;-59
2020/12/22 04:26:35;;;;;;;0.30;0.30;;;10.90;99.90;;;;;;4189125;28;20244;-59
2020/12/22 04:28:36;;;;;;;0.40;0.40;;;11.00;99.90;;;;;;4191087;28;20571;-58
2020/12/22 04:30:38;;;;;;;1.77;0.40;;;11.00;99.90;;;;;;4190232;28;20279;-58
2020/12/22 04:32:40;;;;;;;1.30;0.40;;;11.00;99.90;;;;;;4189642;28;20221;-58
2020/12/22 04:34:41;;;;;;;0.37;0.33;;;11.00;99.90;;;;;;4192019;28;20224;-58
2020/12/22 04:36:43;;;;;;;1.20;0.40;;;11.00;99.90;;;;;;4190357;28;20711;-58
2020/12/22 04:38:44;;;;;;;0.60;0.27;;;11.00;99.90;;;;;;4189812;28;20217;-58
2020/12/22 04:40:45;;;;;;;2.43;0.37;;;11.00;99.90;;;;;;4190467;28;20603;-59
2020/12/22 04:42:49;;;;;;;0.30;0.30;;;11.10;99.90;;;;;;4192454;28;21721;-58
2020/12/22 04:44:51;;;;;;;0.67;0.40;;;11.10;99.90;;;;;;4191015;28;20665;-59
2020/12/22 04:46:53;;;;;;;0.37;0.30;;;11.10;99.90;;;;;;4193691;28;20206;-58
2020/12/22 04:48:58;;;;;;;0.80;0.33;;;11.10;99.90;;;;;;4192248;28;20210;-59
2020/12/22 04:51:00;;;;;;;0.43;0.40;;;11.10;99.90;;;;;;4194102;28;20213;-59
2020/12/22 04:53:01;;;;;;;0.67;0.43;;;11.10;99.90;;;;;;4193399;28;20233;-59
2020/12/22 04:55:03;;;;;;;0.43;0.30;;;11.20;99.90;;;;;;4193377;28;20289;-59
2020/12/22 04:57:05;;;;;;;1.00;0.30;;;11.20;99.90;;;;;;4195085;28;20210;-59
2020/12/22 04:59:07;;;;;;;0.40;0.40;;;11.20;99.90;;;;;;4191777;28;20218;-59
2020/12/22 05:01:08;;;;;;;0.53;0.53;;;11.30;99.90;;;;;;4193615;28;20213;-62
2020/12/22 05:03:12;;;;;;;0.50;0.40;;;11.30;99.90;;;;;;4195695;28;20685;-58
2020/12/22 05:05:14;;;;;;;0.40;0.40;;;11.20;99.90;;;;;;4193692;28;20207;-62
2020/12/22 05:07:15;;;;;;;0.40;0.40;;;11.30;99.90;;;;;;4194566;28;20231;-59
2020/12/22 05:09:16;;;;;;;0.40;0.40;;;11.30;99.90;;;;;;4194584;28;20768;-59
2020/12/22 05:11:18;;;;;;;0.97;0.50;;;11.30;99.90;;;;;;4193870;28;20226;-59
2020/12/22 05:13:20;;;;;;;0.30;0.30;;;11.30;99.90;;;;;;4192897;28;20214;-60
2020/12/22 05:15:22;;;;;;;0.33;0.33;;;11.30;99.90;;;;;;4193677;28;20710;-62
2020/12/22 05:17:23;;;;;;;0.33;0.30;;;11.40;99.90;;;;;;4192434;28;20235;-60
2020/12/22 05:19:33;;;;;;;0.77;0.40;;;11.40;99.90;;;;;;4194762;28;20260;-60
2020/12/22 05:21:37;;;;;;;0.73;0.40;;;11.40;99.90;;;;;;4194214;28;20212;-60
2020/12/22 05:23:38;;;;;;;0.30;0.30;;;11.40;99.90;;;;;;4194061;28;20212;-60
2020/12/22 05:25:41;;;;;;;0.30;0.30;;;11.50;99.90;;;;;;4194350;28;20214;-59
2020/12/22 05:27:43;;;;;;;1.27;0.50;;;11.50;99.90;;;;;;4194072;28;20213;-59
2020/12/22 05:29:46;;;;;;;0.60;0.50;;;11.50;99.90;;;;;;4194257;28;20691;-59
2020/12/22 05:31:48;;;;;;;1.33;0.40;;;11.50;99.90;;;;;;4191894;28;20221;-59
2020/12/22 05:33:50;;;;;;;0.40;0.40;;;11.60;99.90;;;;;;4192194;28;20211;-60
2020/12/22 05:35:51;;;;;;;1.17;0.30;;;11.60;99.90;;;;;;4193558;28;20229;-60
2020/12/22 05:37:55;;;;;;;0.40;0.40;;;11.60;99.90;;;;;;4193132;28;20225;-60
2020/12/22 05:39:56;;;;;;;0.60;0.60;;;11.60;99.90;;;;;;4193238;28;20535;-60
2020/12/22 05:41:58;;;;;;;1.03;0.40;;;11.70;99.90;;;;;;4191350;28;20211;-60
2020/12/22 05:43:59;;;;;;;0.40;0.40;;;11.70;99.90;;;;;;4192198;28;20212;-59
2020/12/22 05:46:01;;;;;;;0.40;0.40;;;11.70;99.90;;;;;;4194077;28;20221;-59
2020/12/22 05:48:04;;;;;;;0.50;0.40;;;11.70;99.90;;;;;;4191909;28;20223;-59
2020/12/22 05:50:06;;;;;;;0.53;0.40;;;11.70;99.90;;;;;;4193838;28;20215;-59
2020/12/22 05:52:07;;;;;;;2.40;0.47;;;11.70;99.90;;;;;;4194741;28;20325;-59
2020/12/22 05:54:14;;;;;;;0.67;0.60;;;11.70;99.90;;;;;;4193228;28;20674;-59
2020/12/22 05:56:17;;;;;;;1.27;0.60;;;11.80;99.90;;;;;;4193025;28;20207;-59
2020/12/22 05:58:18;;;;;;;0.30;0.30;;;11.80;99.90;;;;;;4194010;28;20212;-59
2020/12/22 06:00:20;;;;;;;0.40;0.40;;;11.80;99.90;;;;;;4191360;28;20238;-59
2020/12/22 06:02:25;;;;;;;1.17;0.57;;;11.80;99.90;;;;;;4194172;28;20226;-59
2020/12/22 06:04:27;;;;;;;0.70;0.43;;;11.80;99.90;;;;;;4193372;28;20276;-60
2020/12/22 06:06:29;;;;;;;0.40;0.40;;;11.80;99.90;;;;;;4191700;28;20270;-60
2020/12/22 06:08:31;;;;;;;0.40;0.40;;;11.80;99.90;;;;;;4192633;28;20226;-60
2020/12/22 06:10:34;;;;;;;0.30;0.30;;;11.80;99.90;;;;;;4191092;28;22207;-60
2020/12/22 06:12:39;;;;;;;2.20;0.50;;;11.90;99.90;;;;;;4192529;28;20596;-60
2020/12/22 06:14:44;;;;;;;0.37;0.37;;;11.80;99.90;;;;;;4193087;28;20239;-60
2020/12/22 06:16:45;;;;;;;1.90;0.40;;;11.80;99.90;;;;;;4192521;28;20215;-59
2020/12/22 06:18:47;;;;;;;0.40;0.40;;;11.80;99.90;;;;;;4193172;28;20221;-60
2020/12/22 06:20:49;;;;;;;4.27;0.50;;;11.80;99.90;;;;;;4192592;28;20239;-59
2020/12/22 06:22:51;;;;;;;0.67;0.50;;;11.80;99.90;;;;;;4192033;28;21051;-59
2020/12/22 06:24:53;;;;;;;0.50;0.50;;;11.80;99.90;;;;;;4193655;28;20211;-59
2020/12/22 06:27:01;;;;;;;0.40;0.40;;;11.80;99.90;;;;;;4192421;28;20251;-59
2020/12/22 06:29:02;;;;;;;1.90;0.50;;;11.80;99.90;;;;;;4191509;28;20539;-59
2020/12/22 06:31:18;;;;;;;2.50;0.50;;;11.90;99.90;;;;;;4192800;28;20211;-59
2020/12/22 06:33:21;;;;;;;0.50;0.50;;;11.90;99.90;;;;;;4192163;28;20592;-59
2020/12/22 06:35:30;;;;;;;0.60;0.50;;;11.90;99.90;;;;;;4192926;28;20215;-59
2020/12/22 06:37:41;;;;;;;0.50;0.40;;;11.80;99.90;;;;;;4193805;28;20249;-59
2020/12/22 06:39:43;;;;;;;0.70;0.60;;;11.90;99.90;;;;;;4192494;28;20242;-59
2020/12/22 06:41:45;;;;;;;1.03;0.70;;;11.90;99.90;;;;;;4191645;28;20233;-59
2020/12/22 06:43:47;;;;;;;1.60;0.50;;;11.90;99.90;;;;;;4191505;28;20223;-59
2020/12/22 06:45:49;;;;;;;2.10;0.70;;;11.90;99.90;;;;;;4192797;28;20216;-63
2020/12/22 06:47:50;;;;;;;2.13;0.50;;;11.90;99.90;;;;;;4192764;28;20737;-61
2020/12/22 06:49:53;;;;;;;0.60;0.60;;;11.90;99.90;;;;;;4189934;28;20218;-60
2020/12/22 06:51:54;;;;;;;0.40;0.40;;;11.90;99.90;;;;;;4193185;28;20288;-59
2020/12/22 06:53:55;;;;;;;0.50;0.50;;;11.90;99.90;;;;;;4194312;28;20295;-59
2020/12/22 06:55:56;;;;;;;0.77;0.60;;;11.90;99.90;;;;;;4190267;28;20215;-59
2020/12/22 06:58:02;;;;;;;0.57;0.57;;;11.90;99.90;;;;;;4191622;28;20221;-60
2020/12/22 07:00:05;;;;;;;0.90;0.70;;;11.90;99.90;;;;;;4190187;28;20348;-58
2020/12/22 07:02:26;;;;;;;0.40;0.40;;;11.90;99.90;;;;;;4191480;28;20658;-55
2020/12/22 07:04:27;;;;;;;0.50;0.50;;;11.90;99.90;;;;;;4192208;28;20216;-55
2020/12/22 07:06:43;;;;;;;1.70;0.50;;;12.00;99.90;;;;;;4191273;28;20254;-55
2020/12/22 07:08:45;;;;;;;0.50;0.50;;;12.00;99.90;;;;;;4191741;28;20214;-55
2020/12/22 07:10:48;;;;;;;0.40;0.40;;;12.00;99.90;;;;;;4191334;28;20239;-55
2020/12/22 07:12:50;;;;;;;0.50;0.50;;;12.00;99.90;;;;;;4191061;28;20211;-55
2020/12/22 07:14:51;;;;;;;0.60;0.60;;;12.00;99.90;;;;;;4192873;28;20285;-55
2020/12/22 07:17:00;;;;;;;0.67;0.60;;;12.00;99.90;;;;;;4191183;28;20272;-55
2020/12/22 07:19:03;;;;;;;2.20;0.90;;;12.00;99.90;;;;;;4191027;28;20237;-55
2020/12/22 07:21:05;;;;;;;1.83;0.70;;;12.00;99.90;;;;;;4192855;28;20299;-55
2020/12/22 07:23:07;;;;;;;1.07;1.00;;;12.00;99.90;;;;;;4190704;28;20633;-56
2020/12/22 07:25:08;;;;;;;0.67;0.63;;;12.00;99.90;;;;;;4193421;28;20223;-55
2020/12/22 07:27:10;;;;;;;0.80;0.70;;;12.00;99.90;;;;;;4191577;28;20288;-55
2020/12/22 07:29:12;;;;;;;0.80;0.70;;;12.00;99.90;;;;;;4190087;28;20226;-56
2020/12/22 07:31:19;;;;;;;1.20;0.90;;;12.00;99.90;;;;;;4192193;28;20227;-56
2020/12/22 07:33:21;;;;;;;1.40;1.10;;;12.00;99.90;;;;;;4191288;28;20730;-55
2020/12/22 07:35:22;;;;;;;0.90;0.80;;;12.10;99.90;;;;;;4190751;28;20215;-56
2020/12/22 07:37:23;;;;;;;1.90;0.87;;;12.00;99.90;;;;;;4191914;28;22026;-56
2020/12/22 07:39:25;;;;;;;0.60;0.60;;;12.00;99.90;;;;;;4190665;28;20210;-55
2020/12/22 07:41:27;;;;;;;1.27;0.70;;;12.00;99.90;;;;;;4191157;28;22030;-55
2020/12/22 07:43:28;;;;;;;0.70;0.70;;;12.10;99.90;;;;;;4190490;28;20992;-57
2020/12/22 07:45:29;;;;;;;1.13;0.70;;;12.10;99.90;;;;;;4190149;28;20255;-56
2020/12/22 07:47:31;;;;;;;1.13;0.70;;;12.10;99.90;;;;;;4191334;28;20244;-56
2020/12/22 07:49:33;;;;;;;1.43;0.60;;;12.10;99.90;;;;;;4191600;28;20269;-55
2020/12/22 07:51:35;;;;;;;0.70;0.60;;;12.10;99.90;;;;;;4191884;28;20217;-58
2020/12/22 07:53:36;;;;;;;0.60;0.60;;;12.10;99.90;;;;;;4191145;28;20217;-55
2020/12/22 07:55:39;;;;;;;0.67;0.63;;;12.20;99.90;;;;;;4190488;28;20650;-61
2020/12/22 07:57:40;;;;;;;0.70;0.70;;;12.20;99.90;;;;;;4189982;28;20539;-57
2020/12/22 07:59:44;;;;;;;0.70;0.70;;;12.20;99.90;;;;;;4191976;28;20230;-56
2020/12/22 08:01:46;;;;;;;1.77;0.80;;;12.20;99.90;;;;;;4191140;28;20230;-56
2020/12/22 08:03:47;;;;;;;1.00;0.90;;;12.30;99.90;;;;;;4192312;28;20211;-56
2020/12/22 08:06:00;;;;;;;0.90;0.90;;;12.30;99.90;;;;;;4191163;28;20223;-55
2020/12/22 08:08:01;;;;;;;2.80;0.80;;;12.30;99.90;;;;;;4191132;28;20250;-55
2020/12/22 08:10:10;;;;;;;0.80;0.80;;;12.30;99.90;;;;;;4191281;28;20243;-56
2020/12/22 08:12:11;;;;;;;0.70;0.70;;;12.30;99.90;;;;;;4190558;28;20238;-58
2020/12/22 08:14:13;;;;;;;0.60;0.60;;;12.40;99.90;;;;;;4191105;28;20213;-56
2020/12/22 08:16:14;;;;;;;0.70;0.70;;;12.40;99.90;;;;;;4190317;28;20211;-55
2020/12/22 08:18:16;;;;;;;2.00;0.70;;;12.40;99.90;;;;;;4190064;28;20216;-56
2020/12/22 08:20:18;;;;;;;2.23;0.70;;;12.40;99.90;;;;;;4192102;28;20246;-57
2020/12/22 08:22:21;;;;;;;0.60;0.60;;;12.40;99.90;;;;;;4191510;28;20639;-56
2020/12/22 08:24:23;;;;;;;0.60;0.50;;;12.50;99.90;;;;;;4190006;28;20310;-55
2020/12/22 08:26:24;;;;;;;1.30;0.80;;;12.50;99.90;;;;;;4190948;28;20212;-56
2020/12/22 08:28:26;;;;;;;0.60;0.60;;;12.50;99.90;;;;;;4190612;28;20223;-56
2020/12/22 08:30:29;;;;;;;1.10;0.67;;;12.50;99.90;;;;;;4190066;28;20213;-56
2020/12/22 08:32:30;;;;;;;2.67;0.60;;;12.50;99.90;;;;;;4190726;28;20238;-56
2020/12/22 08:34:32;;;;;;;0.50;0.50;;;12.50;99.90;;;;;;4190274;28;20222;-56
2020/12/22 08:36:35;;;;;;;0.50;0.40;;;12.50;99.90;;;;;;4191232;28;20639;-56
2020/12/22 08:38:37;;;;;;;0.40;0.40;;;12.50;99.90;;;;;;4190345;28;20632;-55
2020/12/22 08:40:38;;;;;;;2.10;0.40;;;12.50;99.90;;;;;;4190754;28;20236;-55
2020/12/22 08:42:47;;;;;;;1.30;0.90;;;12.60;99.90;;;;;;4189439;28;20579;-56
2020/12/22 08:44:50;;;;;;;0.40;0.40;;;12.60;99.90;;;;;;4189057;28;20211;-56
2020/12/22 08:46:52;;;;;;;0.40;0.40;;;12.60;99.90;;;;;;4189588;28;20212;-56
2020/12/22 08:48:54;;;;;;;0.63;0.53;;;12.70;99.90;;;;;;4190278;28;20220;-56
2020/12/22 08:50:55;;;;;;;4.63;0.63;;;12.70;99.90;;;;;;4190216;28;20208;-56
2020/12/22 08:52:57;;;;;;;1.47;0.40;;;12.70;99.90;;;;;;4191093;28;20270;-56
2020/12/22 08:55:01;;;;;;;0.57;0.40;;;12.70;99.90;;;;;;4189666;28;20622;-56
2020/12/22 08:57:10;;;;;;;2.60;0.50;;;12.80;99.90;;;;;;4189584;28;20230;-56
2020/12/22 08:59:12;;;;;;;1.23;0.50;;;12.70;99.90;;;;;;4190731;28;20216;-60
2020/12/22 09:01:17;;;;;;;1.03;0.43;;;12.80;99.90;;;;;;4189605;28;20236;-57
2020/12/22 09:03:18;;;;;;;0.30;0.30;;;12.80;99.90;;;;;;4191691;28;21854;-56
2020/12/22 09:05:20;;;;;;;0.83;0.30;;;12.80;99.90;;;;;;4190011;28;20215;-56
2020/12/22 09:07:25;;;;;;;1.23;0.50;;;12.80;99.90;;;;;;4189965;28;20231;-55
2020/12/22 09:09:28;;;;;;;0.43;0.30;;;12.80;99.90;;;;;;4190663;28;20738;-55
2020/12/22 09:11:29;;;;;;;0.90;0.50;;;12.80;99.90;;;;;;4190913;28;20222;-58
2020/12/22 09:13:32;;;;;;;0.50;0.40;;;12.90;99.90;;;;;;4190188;28;20338;-55
2020/12/22 09:15:33;;;;;;;0.53;0.40;;;12.90;99.90;;;;;;4191150;28;20216;-55
2020/12/22 09:17:35;;;;;;;1.33;0.50;;;12.90;99.90;;;;;;4191422;28;20215;-55
2020/12/22 09:19:45;;;;;;;0.40;0.30;;;12.90;99.90;;;;;;4188964;28;20220;-55
2020/12/22 09:21:47;;;;;;;0.47;0.30;;;12.90;99.90;;;;;;4191041;28;20220;-56
2020/12/22 09:23:48;;;;;;;0.33;0.30;;;12.90;99.90;;;;;;4191465;28;20217;-59
2020/12/22 09:25:49;;;;;;;0.30;0.30;;;12.90;99.90;;;;;;4190188;28;20288;-57
2020/12/22 09:27:52;;;;;;;0.43;0.40;;;12.90;99.90;;;;;;4189293;28;20220;-56
2020/12/22 09:29:53;;;;;;;0.60;0.50;;;13.00;99.90;;;;;;4189119;28;20213;-57
2020/12/22 09:31:55;;;;;;;0.80;0.50;;;13.00;99.90;;;;;;4194524;28;20310;-61
2020/12/22 09:33:57;;;;;;;5.60;0.40;;;13.00;99.90;;;;;;4192918;28;20642;-56
2020/12/22 09:35:58;;;;;;;0.40;0.40;;;13.00;99.90;;;;;;4193337;28;20240;-59
2020/12/22 09:38:00;;;;;;;0.60;0.50;;;13.00;99.90;;;;;;4194013;28;20213;-56
2020/12/22 09:40:01;;;;;;;0.57;0.40;;;13.00;99.90;;;;;;4193436;28;20248;-57
2020/12/22 09:42:04;;;;;;;1.03;0.40;;;13.00;99.90;;;;;;4193034;28;20220;-56
2020/12/22 09:44:05;;;;;;;0.90;0.43;;;13.00;99.90;;;;;;4192442;28;20225;-56
2020/12/22 09:46:07;;;;;;;1.03;0.47;;;13.00;99.90;;;;;;4191265;28;20215;-56
2020/12/22 09:48:08;;;;;;;1.00;0.57;;;13.00;99.90;;;;;;4193152;28;20233;-56
2020/12/22 09:50:09;;;;;;;0.60;0.50;;;13.10;99.90;;;;;;4191850;28;20221;-56
2020/12/22 09:52:11;;;;;;;2.13;0.40;;;13.10;99.90;;;;;;4192857;28;20213;-56
2020/12/22 09:54:12;;;;;;;1.80;0.50;;;13.10;99.90;;;;;;4193770;28;20237;-56
2020/12/22 09:56:13;;;;;;;1.37;0.57;;;13.10;99.90;;;;;;4191936;28;22022;-56
2020/12/22 09:58:15;;;;;;;2.90;0.87;;;13.10;99.90;;;;;;4192779;28;20220;-56
2020/12/22 10:00:17;;;;;;;2.23;0.73;;;13.10;99.90;;;;;;4193728;28;20731;-56
2020/12/22 10:02:18;;;;;;;0.50;0.40;;;13.20;99.90;;;;;;4191612;28;20216;-56
2020/12/22 10:04:20;;;;;;;0.80;0.50;;;13.20;99.90;;;;;;4192895;28;20247;-55
2020/12/22 10:06:23;;;;;;;0.57;0.40;;;13.20;99.90;;;;;;4192424;28;20532;-55
2020/12/22 10:08:24;;;;;;;0.70;0.50;;;13.30;99.90;;;;;;4191455;28;20321;-55
2020/12/22 10:10:25;;;;;;;0.80;0.40;;;13.30;99.90;;;;;;4193709;28;20240;-55
2020/12/22 10:12:27;;;;;;;1.70;0.60;;;13.40;99.90;;;;;;4191926;28;20229;-56
2020/12/22 10:14:28;;;;;;;1.90;0.40;;;13.40;99.90;;;;;;4192451;28;20218;-56
2020/12/22 10:16:31;;;;;;;0.93;0.50;;;13.60;99.90;;;;;;4192976;28;20951;-56
2020/12/22 10:18:32;;;;;;;0.70;0.30;;;13.70;99.90;;;;;;4192652;28;21807;-56
2020/12/22 10:20:34;;;;;;;2.17;0.80;;;13.70;99.90;;;;;;4194253;28;20237;-56
2020/12/22 10:22:35;;;;;;;2.43;0.60;;;13.90;99.90;;;;;;4193777;28;20701;-56
2020/12/22 10:24:36;;;;;;;2.10;0.40;;;13.90;99.90;;;;;;4194188;28;20221;-56
2020/12/22 10:26:38;;;;;;;0.90;0.50;;;14.00;99.90;;;;;;4191150;28;20253;-56
2020/12/22 10:28:40;;;;;;;1.30;0.77;;;14.00;99.90;;;;;;4192370;28;20220;-56
2020/12/22 10:30:42;;;;;;;1.97;0.50;;;13.90;99.90;;;;;;4190752;28;20202;-56
2020/12/22 10:32:44;;;;;;;0.40;0.40;;;13.90;99.90;;;;;;4193555;28;20212;-55
2020/12/22 10:34:47;;;;;;;1.67;0.60;;;13.90;99.90;;;;;;4190689;28;21125;-56
2020/12/22 10:36:48;;;;;;;2.80;0.50;;;14.00;99.90;;;;;;4191538;28;20221;-56
2020/12/22 10:38:50;;;;;;;1.07;0.50;;;14.00;99.90;;;;;;4191062;28;20222;-56